sensor_id;sensor_type;location;lat;lon;timestamp;P1;durP1;ratioP1;P2;durP2;ratioP2
2896;SDS011;1458;49.728;9.228;2023-09-12T00:02:19;0.10;;;0.10;;
2896;SDS011;1458;49.728;9.228;2023-09-12T00:04:47;0.10;;;0.10;;
2896;SDS011;1458;49.728;9.228;2023-09-12T00:07:16;0.10;;;0.10;;
2896;SDS011;1458;49.728;9.228;2023-09-12T00:09:43;0.10;;;0.10;;
2896;SDS011;1458;49.728;9.228;2023-09-12T00:12:13;0.10;;;0.10;;
2896;SDS011;1458;49.728;9.228;2023-09-12T00:14:41;0.10;;;0.10;;
2896;SDS011;1458;49.728;9.228;2023-09-12T00:17:10;0.10;;;0.10;;
2896;SDS011;1458;49.728;9.228;2023-09-12T00:19:37;0.10;;;0.10;;
2896;SDS011;1458;49.728;9.228;2023-09-12T00:22:05;0.10;;;0.10;;
2896;SDS011;1458;49.728;9.228;2023-09-12T00:24:32;0.10;;;0.10;;
2896;SDS011;1458;49.728;9.228;2023-09-12T00:27:00;0.10;;;0.10;;
2896;SDS011;1458;49.728;9.228;2023-09-12T00:29:30;0.10;;;0.10;;
2896;SDS011;1458;49.728;9.228;2023-09-12T00:31:57;0.10;;;0.10;;
2896;SDS011;1458;49.728;9.228;2023-09-12T00:34:26;0.10;;;0.10;;
2896;SDS011;1458;49.728;9.228;2023-09-12T00:36:53;0.10;;;0.10;;
2896;SDS011;1458;49.728;9.228;2023-09-12T00:39:21;0.10;;;0.10;;
2896;SDS011;1458;49.728;9.228;2023-09-12T00:41:48;0.10;;;0.10;;
2896;SDS011;1458;49.728;9.228;2023-09-12T00:44:16;0.10;;;0.10;;
2896;SDS011;1458;49.728;9.228;2023-09-12T00:46:43;0.10;;;0.10;;
2896;SDS011;1458;49.728;9.228;2023-09-12T00:49:12;0.10;;;0.10;;
2896;SDS011;1458;49.728;9.228;2023-09-12T00:51:42;0.10;;;0.10;;
2896;SDS011;1458;49.728;9.228;2023-09-12T00:54:12;0.10;;;0.10;;
2896;SDS011;1458;49.728;9.228;2023-09-12T00:56:40;0.10;;;0.10;;
2896;SDS011;1458;49.728;9.228;2023-09-12T00:59:07;0.10;;;0.10;;
2896;SDS011;1458;49.728;9.228;2023-09-12T01:01:36;0.10;;;0.10;;
2896;SDS011;1458;49.728;9.228;2023-09-12T01:04:04;0.10;;;0.10;;
2896;SDS011;1458;49.728;9.228;2023-09-12T01:06:32;0.10;;;0.10;;
2896;SDS011;1458;49.728;9.228;2023-09-12T01:09:02;0.10;;;0.10;;
2896;SDS011;1458;49.728;9.228;2023-09-12T01:11:30;0.10;;;0.10;;
2896;SDS011;1458;49.728;9.228;2023-09-12T01:13:58;0.10;;;0.10;;
2896;SDS011;1458;49.728;9.228;2023-09-12T01:16:26;0.10;;;0.10;;
2896;SDS011;1458;49.728;9.228;2023-09-12T01:18:53;0.10;;;0.10;;
2896;SDS011;1458;49.728;9.228;2023-09-12T01:24:43;0.10;;;0.10;;
2896;SDS011;1458;49.728;9.228;2023-09-12T01:27:34;0.10;;;0.10;;
2896;SDS011;1458;49.728;9.228;2023-09-12T01:30:04;0.10;;;0.10;;
2896;SDS011;1458;49.728;9.228;2023-09-12T01:32:34;0.10;;;0.10;;
2896;SDS011;1458;49.728;9.228;2023-09-12T01:35:03;0.10;;;0.10;;
2896;SDS011;1458;49.728;9.228;2023-09-12T01:37:31;0.10;;;0.10;;
2896;SDS011;1458;49.728;9.228;2023-09-12T01:39:59;0.10;;;0.10;;
2896;SDS011;1458;49.728;9.228;2023-09-12T01:42:30;0.10;;;0.10;;
2896;SDS011;1458;49.728;9.228;2023-09-12T01:45:08;0.13;;;0.13;;
2896;SDS011;1458;49.728;9.228;2023-09-12T01:47:40;0.10;;;0.10;;
2896;SDS011;1458;49.728;9.228;2023-09-12T01:50:09;0.10;;;0.10;;
2896;SDS011;1458;49.728;9.228;2023-09-12T01:52:38;0.10;;;0.10;;
2896;SDS011;1458;49.728;9.228;2023-09-12T01:55:07;0.10;;;0.10;;
2896;SDS011;1458;49.728;9.228;2023-09-12T01:57:36;0.10;;;0.10;;
2896;SDS011;1458;49.728;9.228;2023-09-12T02:00:06;0.20;;;0.20;;
2896;SDS011;1458;49.728;9.228;2023-09-12T02:02:35;0.10;;;0.10;;
2896;SDS011;1458;49.728;9.228;2023-09-12T02:05:05;0.10;;;0.10;;
2896;SDS011;1458;49.728;9.228;2023-09-12T02:07:39;0.10;;;0.10;;
2896;SDS011;1458;49.728;9.228;2023-09-12T02:10:08;0.10;;;0.10;;
2896;SDS011;1458;49.728;9.228;2023-09-12T02:12:36;0.10;;;0.10;;
2896;SDS011;1458;49.728;9.228;2023-09-12T02:15:05;0.10;;;0.10;;
2896;SDS011;1458;49.728;9.228;2023-09-12T02:17:34;0.10;;;0.10;;
2896;SDS011;1458;49.728;9.228;2023-09-12T02:20:01;0.10;;;0.10;;
2896;SDS011;1458;49.728;9.228;2023-09-12T02:22:31;0.10;;;0.10;;
2896;SDS011;1458;49.728;9.228;2023-09-12T02:24:58;0.10;;;0.10;;
2896;SDS011;1458;49.728;9.228;2023-09-12T02:27:26;0.10;;;0.10;;
2896;SDS011;1458;49.728;9.228;2023-09-12T02:29:53;0.10;;;0.10;;
2896;SDS011;1458;49.728;9.228;2023-09-12T02:32:22;0.10;;;0.10;;
2896;SDS011;1458;49.728;9.228;2023-09-12T02:34:49;0.10;;;0.10;;
2896;SDS011;1458;49.728;9.228;2023-09-12T02:37:18;0.10;;;0.10;;
2896;SDS011;1458;49.728;9.228;2023-09-12T02:39:46;0.10;;;0.10;;
2896;SDS011;1458;49.728;9.228;2023-09-12T02:42:13;0.10;;;0.10;;
2896;SDS011;1458;49.728;9.228;2023-09-12T02:44:40;0.10;;;0.10;;
2896;SDS011;1458;49.728;9.228;2023-09-12T02:47:08;0.10;;;0.10;;
2896;SDS011;1458;49.728;9.228;2023-09-12T02:49:37;0.10;;;0.10;;
2896;SDS011;1458;49.728;9.228;2023-09-12T02:52:04;0.10;;;0.10;;
2896;SDS011;1458;49.728;9.228;2023-09-12T02:54:32;0.10;;;0.10;;
2896;SDS011;1458;49.728;9.228;2023-09-12T02:56:59;0.10;;;0.10;;
2896;SDS011;1458;49.728;9.228;2023-09-12T02:59:26;0.10;;;0.10;;
2896;SDS011;1458;49.728;9.228;2023-09-12T03:01:54;0.10;;;0.10;;
2896;SDS011;1458;49.728;9.228;2023-09-12T03:04:21;0.10;;;0.10;;
2896;SDS011;1458;49.728;9.228;2023-09-12T03:06:52;0.10;;;0.10;;
2896;SDS011;1458;49.728;9.228;2023-09-12T03:09:20;0.10;;;0.10;;
2896;SDS011;1458;49.728;9.228;2023-09-12T03:11:48;0.10;;;0.10;;
2896;SDS011;1458;49.728;9.228;2023-09-12T03:14:15;0.10;;;0.10;;
2896;SDS011;1458;49.728;9.228;2023-09-12T03:16:43;0.10;;;0.10;;
2896;SDS011;1458;49.728;9.228;2023-09-12T03:19:10;0.10;;;0.10;;
2896;SDS011;1458;49.728;9.228;2023-09-12T03:21:38;0.10;;;0.10;;
2896;SDS011;1458;49.728;9.228;2023-09-12T03:24:07;0.20;;;0.20;;
2896;SDS011;1458;49.728;9.228;2023-09-12T03:26:35;0.10;;;0.10;;
2896;SDS011;1458;49.728;9.228;2023-09-12T03:29:03;0.20;;;0.20;;
2896;SDS011;1458;49.728;9.228;2023-09-12T03:31:31;0.10;;;0.10;;
2896;SDS011;1458;49.728;9.228;2023-09-12T03:33:58;0.10;;;0.10;;
2896;SDS011;1458;49.728;9.228;2023-09-12T03:36:27;0.10;;;0.10;;
2896;SDS011;1458;49.728;9.228;2023-09-12T03:38:54;0.10;;;0.10;;
2896;SDS011;1458;49.728;9.228;2023-09-12T03:41:23;0.20;;;0.20;;
2896;SDS011;1458;49.728;9.228;2023-09-12T03:43:52;0.20;;;0.20;;
2896;SDS011;1458;49.728;9.228;2023-09-12T03:46:21;0.10;;;0.10;;
2896;SDS011;1458;49.728;9.228;2023-09-12T03:48:48;0.10;;;0.10;;
2896;SDS011;1458;49.728;9.228;2023-09-12T03:51:16;0.10;;;0.10;;
2896;SDS011;1458;49.728;9.228;2023-09-12T03:53:43;0.10;;;0.10;;
2896;SDS011;1458;49.728;9.228;2023-09-12T03:56:13;0.10;;;0.10;;
2896;SDS011;1458;49.728;9.228;2023-09-12T03:58:42;0.10;;;0.10;;
2896;SDS011;1458;49.728;9.228;2023-09-12T04:01:09;0.10;;;0.10;;
2896;SDS011;1458;49.728;9.228;2023-09-12T04:03:37;0.10;;;0.10;;
2896;SDS011;1458;49.728;9.228;2023-09-12T04:06:04;0.13;;;0.13;;
2896;SDS011;1458;49.728;9.228;2023-09-12T04:08:32;0.10;;;0.10;;
2896;SDS011;1458;49.728;9.228;2023-09-12T04:10:59;0.10;;;0.10;;
2896;SDS011;1458;49.728;9.228;2023-09-12T04:13:27;0.10;;;0.10;;
2896;SDS011;1458;49.728;9.228;2023-09-12T04:15:57;0.10;;;0.10;;
2896;SDS011;1458;49.728;9.228;2023-09-12T04:18:24;0.10;;;0.10;;
2896;SDS011;1458;49.728;9.228;2023-09-12T04:20:52;0.10;;;0.10;;
2896;SDS011;1458;49.728;9.228;2023-09-12T04:23:20;0.10;;;0.10;;
2896;SDS011;1458;49.728;9.228;2023-09-12T04:25:48;0.10;;;0.10;;
2896;SDS011;1458;49.728;9.228;2023-09-12T04:28:15;0.10;;;0.10;;
2896;SDS011;1458;49.728;9.228;2023-09-12T04:30:43;0.10;;;0.10;;
2896;SDS011;1458;49.728;9.228;2023-09-12T04:33:11;0.10;;;0.10;;
2896;SDS011;1458;49.728;9.228;2023-09-12T04:35:39;0.10;;;0.10;;
2896;SDS011;1458;49.728;9.228;2023-09-12T04:38:06;0.10;;;0.10;;
2896;SDS011;1458;49.728;9.228;2023-09-12T04:40:34;0.10;;;0.10;;
2896;SDS011;1458;49.728;9.228;2023-09-12T04:43:01;0.10;;;0.10;;
2896;SDS011;1458;49.728;9.228;2023-09-12T04:45:29;0.10;;;0.10;;
2896;SDS011;1458;49.728;9.228;2023-09-12T04:47:59;0.10;;;0.10;;
2896;SDS011;1458;49.728;9.228;2023-09-12T04:50:29;0.10;;;0.10;;
2896;SDS011;1458;49.728;9.228;2023-09-12T04:52:56;0.10;;;0.10;;
2896;SDS011;1458;49.728;9.228;2023-09-12T04:55:23;0.10;;;0.10;;
2896;SDS011;1458;49.728;9.228;2023-09-12T04:57:51;0.10;;;0.10;;
2896;SDS011;1458;49.728;9.228;2023-09-12T05:00:18;0.10;;;0.10;;
2896;SDS011;1458;49.728;9.228;2023-09-12T05:02:46;0.10;;;0.10;;
2896;SDS011;1458;49.728;9.228;2023-09-12T05:05:13;0.10;;;0.10;;
2896;SDS011;1458;49.728;9.228;2023-09-12T05:07:42;0.10;;;0.10;;
2896;SDS011;1458;49.728;9.228;2023-09-12T05:10:10;0.10;;;0.10;;
2896;SDS011;1458;49.728;9.228;2023-09-12T05:12:37;0.10;;;0.10;;
2896;SDS011;1458;49.728;9.228;2023-09-12T05:15:05;0.10;;;0.10;;
2896;SDS011;1458;49.728;9.228;2023-09-12T05:17:34;0.17;;;0.17;;
2896;SDS011;1458;49.728;9.228;2023-09-12T05:20:01;0.10;;;0.10;;
2896;SDS011;1458;49.728;9.228;2023-09-12T05:22:30;0.10;;;0.10;;
2896;SDS011;1458;49.728;9.228;2023-09-12T05:24:59;0.10;;;0.10;;
2896;SDS011;1458;49.728;9.228;2023-09-12T05:27:26;0.10;;;0.10;;
2896;SDS011;1458;49.728;9.228;2023-09-12T05:29:53;0.10;;;0.10;;
2896;SDS011;1458;49.728;9.228;2023-09-12T05:32:21;0.10;;;0.10;;
2896;SDS011;1458;49.728;9.228;2023-09-12T05:34:48;0.10;;;0.10;;
2896;SDS011;1458;49.728;9.228;2023-09-12T05:37:16;0.10;;;0.10;;
2896;SDS011;1458;49.728;9.228;2023-09-12T05:39:44;0.10;;;0.10;;
2896;SDS011;1458;49.728;9.228;2023-09-12T05:42:13;0.10;;;0.10;;
2896;SDS011;1458;49.728;9.228;2023-09-12T05:44:46;0.10;;;0.10;;
2896;SDS011;1458;49.728;9.228;2023-09-12T05:47:14;0.10;;;0.10;;
2896;SDS011;1458;49.728;9.228;2023-09-12T05:49:42;0.10;;;0.10;;
2896;SDS011;1458;49.728;9.228;2023-09-12T05:52:09;0.10;;;0.10;;
2896;SDS011;1458;49.728;9.228;2023-09-12T05:54:37;0.10;;;0.10;;
2896;SDS011;1458;49.728;9.228;2023-09-12T05:57:06;0.10;;;0.10;;
2896;SDS011;1458;49.728;9.228;2023-09-12T06:02:05;0.10;;;0.10;;
2896;SDS011;1458;49.728;9.228;2023-09-12T06:04:35;0.10;;;0.10;;
2896;SDS011;1458;49.728;9.228;2023-09-12T06:07:03;0.10;;;0.10;;
2896;SDS011;1458;49.728;9.228;2023-09-12T06:09:30;0.10;;;0.10;;
2896;SDS011;1458;49.728;9.228;2023-09-12T06:11:58;0.10;;;0.10;;
2896;SDS011;1458;49.728;9.228;2023-09-12T06:14:25;0.20;;;0.20;;
2896;SDS011;1458;49.728;9.228;2023-09-12T06:16:54;0.10;;;0.10;;
2896;SDS011;1458;49.728;9.228;2023-09-12T06:19:21;0.10;;;0.10;;
2896;SDS011;1458;49.728;9.228;2023-09-12T06:21:49;0.10;;;0.10;;
2896;SDS011;1458;49.728;9.228;2023-09-12T06:24:17;0.20;;;0.20;;
2896;SDS011;1458;49.728;9.228;2023-09-12T06:26:47;0.20;;;0.20;;
2896;SDS011;1458;49.728;9.228;2023-09-12T06:29:14;0.10;;;0.10;;
2896;SDS011;1458;49.728;9.228;2023-09-12T06:31:42;0.10;;;0.10;;
2896;SDS011;1458;49.728;9.228;2023-09-12T06:34:10;0.10;;;0.10;;
2896;SDS011;1458;49.728;9.228;2023-09-12T06:36:38;0.10;;;0.10;;
2896;SDS011;1458;49.728;9.228;2023-09-12T06:39:06;0.10;;;0.10;;
2896;SDS011;1458;49.728;9.228;2023-09-12T06:41:34;0.13;;;0.13;;
2896;SDS011;1458;49.728;9.228;2023-09-12T06:44:01;0.10;;;0.10;;
2896;SDS011;1458;49.728;9.228;2023-09-12T06:46:30;0.17;;;0.17;;
2896;SDS011;1458;49.728;9.228;2023-09-12T06:49:01;0.20;;;0.20;;
2896;SDS011;1458;49.728;9.228;2023-09-12T06:51:30;0.10;;;0.10;;
2896;SDS011;1458;49.728;9.228;2023-09-12T06:53:57;0.10;;;0.10;;
2896;SDS011;1458;49.728;9.228;2023-09-12T06:56:25;0.13;;;0.13;;
2896;SDS011;1458;49.728;9.228;2023-09-12T06:58:52;0.20;;;0.20;;
2896;SDS011;1458;49.728;9.228;2023-09-12T07:01:20;0.17;;;0.17;;
2896;SDS011;1458;49.728;9.228;2023-09-12T07:03:48;0.20;;;0.20;;
2896;SDS011;1458;49.728;9.228;2023-09-12T07:06:19;0.20;;;0.20;;
2896;SDS011;1458;49.728;9.228;2023-09-12T07:08:48;0.10;;;0.10;;
2896;SDS011;1458;49.728;9.228;2023-09-12T07:11:16;0.20;;;0.20;;
2896;SDS011;1458;49.728;9.228;2023-09-12T07:13:44;0.20;;;0.20;;
2896;SDS011;1458;49.728;9.228;2023-09-12T07:16:12;0.20;;;0.20;;
2896;SDS011;1458;49.728;9.228;2023-09-12T07:18:39;0.20;;;0.20;;
2896;SDS011;1458;49.728;9.228;2023-09-12T07:21:07;0.20;;;0.20;;
2896;SDS011;1458;49.728;9.228;2023-09-12T07:23:36;0.20;;;0.20;;
2896;SDS011;1458;49.728;9.228;2023-09-12T07:26:05;0.10;;;0.10;;
2896;SDS011;1458;49.728;9.228;2023-09-12T07:28:32;0.10;;;0.10;;
2896;SDS011;1458;49.728;9.228;2023-09-12T07:31:00;0.10;;;0.10;;
2896;SDS011;1458;49.728;9.228;2023-09-12T07:33:27;0.20;;;0.20;;
2896;SDS011;1458;49.728;9.228;2023-09-12T07:35:55;0.20;;;0.20;;
2896;SDS011;1458;49.728;9.228;2023-09-12T07:38:22;0.20;;;0.20;;
2896;SDS011;1458;49.728;9.228;2023-09-12T07:40:50;0.20;;;0.20;;
2896;SDS011;1458;49.728;9.228;2023-09-12T07:43:19;0.20;;;0.20;;
2896;SDS011;1458;49.728;9.228;2023-09-12T07:45:48;0.20;;;0.20;;
2896;SDS011;1458;49.728;9.228;2023-09-12T07:48:15;0.20;;;0.20;;
2896;SDS011;1458;49.728;9.228;2023-09-12T07:50:43;0.20;;;0.20;;
2896;SDS011;1458;49.728;9.228;2023-09-12T07:53:10;0.20;;;0.20;;
2896;SDS011;1458;49.728;9.228;2023-09-12T07:55:38;0.20;;;0.20;;
2896;SDS011;1458;49.728;9.228;2023-09-12T07:58:10;0.20;;;0.20;;
2896;SDS011;1458;49.728;9.228;2023-09-12T08:00:40;0.40;;;0.40;;
2896;SDS011;1458;49.728;9.228;2023-09-12T08:03:07;0.20;;;0.20;;
2896;SDS011;1458;49.728;9.228;2023-09-12T08:05:35;0.30;;;0.30;;
2896;SDS011;1458;49.728;9.228;2023-09-12T08:08:03;0.30;;;0.30;;
2896;SDS011;1458;49.728;9.228;2023-09-12T08:10:31;0.30;;;0.30;;
2896;SDS011;1458;49.728;9.228;2023-09-12T08:12:59;0.30;;;0.30;;
2896;SDS011;1458;49.728;9.228;2023-09-12T08:15:26;0.30;;;0.30;;
2896;SDS011;1458;49.728;9.228;2023-09-12T08:17:55;0.30;;;0.30;;
2896;SDS011;1458;49.728;9.228;2023-09-12T08:20:22;0.40;;;0.40;;
2896;SDS011;1458;49.728;9.228;2023-09-12T08:22:50;0.40;;;0.40;;
2896;SDS011;1458;49.728;9.228;2023-09-12T08:25:17;0.40;;;0.40;;
2896;SDS011;1458;49.728;9.228;2023-09-12T08:27:45;0.40;;;0.40;;
2896;SDS011;1458;49.728;9.228;2023-09-12T08:30:13;0.47;;;0.47;;
2896;SDS011;1458;49.728;9.228;2023-09-12T08:32:40;0.60;;;0.60;;
2896;SDS011;1458;49.728;9.228;2023-09-12T08:35:11;0.53;;;0.53;;
2896;SDS011;1458;49.728;9.228;2023-09-12T08:37:40;0.47;;;0.47;;
2896;SDS011;1458;49.728;9.228;2023-09-12T08:40:08;0.60;;;0.60;;
2896;SDS011;1458;49.728;9.228;2023-09-12T08:42:38;0.50;;;0.50;;
2896;SDS011;1458;49.728;9.228;2023-09-12T08:45:11;0.70;;;0.70;;
2896;SDS011;1458;49.728;9.228;2023-09-12T08:47:40;0.80;;;0.80;;
2896;SDS011;1458;49.728;9.228;2023-09-12T08:50:12;1.00;;;1.00;;
2896;SDS011;1458;49.728;9.228;2023-09-12T08:52:42;0.90;;;0.90;;
2896;SDS011;1458;49.728;9.228;2023-09-12T08:55:11;1.30;;;1.30;;
2896;SDS011;1458;49.728;9.228;2023-09-12T08:57:40;1.33;;;1.33;;
2896;SDS011;1458;49.728;9.228;2023-09-12T09:00:09;1.40;;;1.40;;
2896;SDS011;1458;49.728;9.228;2023-09-12T09:02:39;1.50;;;1.50;;
2896;SDS011;1458;49.728;9.228;2023-09-12T09:05:07;1.53;;;1.53;;
2896;SDS011;1458;49.728;9.228;2023-09-12T09:07:38;1.43;;;1.43;;
2896;SDS011;1458;49.728;9.228;2023-09-12T09:10:07;1.40;;;1.40;;
2896;SDS011;1458;49.728;9.228;2023-09-12T09:12:43;1.40;;;1.40;;
2896;SDS011;1458;49.728;9.228;2023-09-12T09:15:20;1.93;;;1.93;;
2896;SDS011;1458;49.728;9.228;2023-09-12T09:17:50;1.80;;;1.80;;
2896;SDS011;1458;49.728;9.228;2023-09-12T09:20:27;2.23;;;2.23;;
2896;SDS011;1458;49.728;9.228;2023-09-12T09:23:02;2.20;;;2.20;;
2896;SDS011;1458;49.728;9.228;2023-09-12T09:25:31;2.10;;;2.10;;
2896;SDS011;1458;49.728;9.228;2023-09-12T09:28:02;2.37;;;2.37;;
2896;SDS011;1458;49.728;9.228;2023-09-12T09:30:41;2.27;;;2.27;;
2896;SDS011;1458;49.728;9.228;2023-09-12T09:33:11;2.33;;;2.33;;
2896;SDS011;1458;49.728;9.228;2023-09-12T09:35:40;2.30;;;2.30;;
2896;SDS011;1458;49.728;9.228;2023-09-12T09:38:10;2.50;;;2.50;;
2896;SDS011;1458;49.728;9.228;2023-09-12T09:40:41;3.00;;;3.00;;
2896;SDS011;1458;49.728;9.228;2023-09-12T09:43:09;3.83;;;3.83;;
2896;SDS011;1458;49.728;9.228;2023-09-12T09:45:42;3.37;;;3.37;;
2896;SDS011;1458;49.728;9.228;2023-09-12T09:48:17;3.50;;;3.50;;
2896;SDS011;1458;49.728;9.228;2023-09-12T09:50:45;3.50;;;3.50;;
2896;SDS011;1458;49.728;9.228;2023-09-12T09:53:14;3.60;;;3.60;;
2896;SDS011;1458;49.728;9.228;2023-09-12T09:55:42;3.87;;;3.87;;
2896;SDS011;1458;49.728;9.228;2023-09-12T09:58:13;4.00;;;4.00;;
2896;SDS011;1458;49.728;9.228;2023-09-12T10:00:43;4.40;;;4.40;;
2896;SDS011;1458;49.728;9.228;2023-09-12T10:03:10;4.60;;;4.60;;
2896;SDS011;1458;49.728;9.228;2023-09-12T10:05:39;4.50;;;4.50;;
2896;SDS011;1458;49.728;9.228;2023-09-12T10:08:09;4.20;;;4.20;;
2896;SDS011;1458;49.728;9.228;2023-09-12T10:10:44;4.30;;;4.30;;
2896;SDS011;1458;49.728;9.228;2023-09-12T10:13:12;4.67;;;4.67;;
2896;SDS011;1458;49.728;9.228;2023-09-12T10:15:41;4.37;;;4.37;;
2896;SDS011;1458;49.728;9.228;2023-09-12T10:18:13;4.77;;;4.77;;
2896;SDS011;1458;49.728;9.228;2023-09-12T10:20:47;4.30;;;4.30;;
2896;SDS011;1458;49.728;9.228;2023-09-12T10:23:20;4.40;;;4.40;;
2896;SDS011;1458;49.728;9.228;2023-09-12T10:25:57;4.57;;;4.57;;
2896;SDS011;1458;49.728;9.228;2023-09-12T10:28:25;5.00;;;5.00;;
2896;SDS011;1458;49.728;9.228;2023-09-12T10:30:54;5.47;;;5.47;;
2896;SDS011;1458;49.728;9.228;2023-09-12T10:33:22;5.73;;;5.73;;
2896;SDS011;1458;49.728;9.228;2023-09-12T10:35:51;6.20;;;6.20;;
2896;SDS011;1458;49.728;9.228;2023-09-12T10:38:19;6.03;;;6.03;;
2896;SDS011;1458;49.728;9.228;2023-09-12T10:40:50;5.70;;;5.70;;
2896;SDS011;1458;49.728;9.228;2023-09-12T10:43:23;6.17;;;6.17;;
2896;SDS011;1458;49.728;9.228;2023-09-12T10:45:51;6.83;;;6.73;;
2896;SDS011;1458;49.728;9.228;2023-09-12T10:48:20;6.60;;;6.60;;
2896;SDS011;1458;49.728;9.228;2023-09-12T10:50:47;7.00;;;6.90;;
2896;SDS011;1458;49.728;9.228;2023-09-12T10:53:15;6.63;;;6.53;;
2896;SDS011;1458;49.728;9.228;2023-09-12T10:55:51;6.80;;;6.70;;
2896;SDS011;1458;49.728;9.228;2023-09-12T10:58:27;8.23;;;8.13;;
2896;SDS011;1458;49.728;9.228;2023-09-12T11:03:51;8.20;;;8.10;;
2896;SDS011;1458;49.728;9.228;2023-09-12T11:06:22;8.33;;;8.23;;
2896;SDS011;1458;49.728;9.228;2023-09-12T11:11:47;9.50;;;9.30;;
2896;SDS011;1458;49.728;9.228;2023-09-12T11:14:17;9.77;;;9.57;;
2896;SDS011;1458;49.728;9.228;2023-09-12T11:16:57;10.43;;;10.20;;
2896;SDS011;1458;49.728;9.228;2023-09-12T11:19:50;9.10;;;8.90;;
2896;SDS011;1458;49.728;9.228;2023-09-12T11:22:23;9.30;;;9.10;;
2896;SDS011;1458;49.728;9.228;2023-09-12T11:24:52;9.50;;;9.30;;
2896;SDS011;1458;49.728;9.228;2023-09-12T11:27:21;9.83;;;9.63;;
2896;SDS011;1458;49.728;9.228;2023-09-12T11:29:51;9.77;;;9.57;;
2896;SDS011;1458;49.728;9.228;2023-09-12T11:32:26;9.60;;;9.40;;
2896;SDS011;1458;49.728;9.228;2023-09-12T11:34:59;9.13;;;8.93;;
2896;SDS011;1458;49.728;9.228;2023-09-12T11:37:31;9.07;;;8.87;;
2896;SDS011;1458;49.728;9.228;2023-09-12T11:40:01;9.60;;;9.40;;
2896;SDS011;1458;49.728;9.228;2023-09-12T11:42:28;10.37;;;10.17;;
2896;SDS011;1458;49.728;9.228;2023-09-12T11:44:58;11.43;;;11.13;;
2896;SDS011;1458;49.728;9.228;2023-09-12T11:47:25;10.10;;;9.90;;
2896;SDS011;1458;49.728;9.228;2023-09-12T11:49:53;10.90;;;10.60;;
2896;SDS011;1458;49.728;9.228;2023-09-12T11:52:21;9.80;;;9.60;;
2896;SDS011;1458;49.728;9.228;2023-09-12T11:54:48;10.10;;;9.90;;
2896;SDS011;1458;49.728;9.228;2023-09-12T11:57:16;11.30;;;11.00;;
2896;SDS011;1458;49.728;9.228;2023-09-12T11:59:43;11.17;;;10.87;;
2896;SDS011;1458;49.728;9.228;2023-09-12T12:02:15;10.10;;;9.90;;
2896;SDS011;1458;49.728;9.228;2023-09-12T12:04:43;10.90;;;10.60;;
2896;SDS011;1458;49.728;9.228;2023-09-12T12:07:09;11.43;;;11.13;;
2896;SDS011;1458;49.728;9.228;2023-09-12T12:09:37;11.67;;;11.37;;
2896;SDS011;1458;49.728;9.228;2023-09-12T12:12:12;10.73;;;10.43;;
2896;SDS011;1458;49.728;9.228;2023-09-12T12:14:41;10.70;;;10.40;;
2896;SDS011;1458;49.728;9.228;2023-09-12T12:17:10;11.07;;;10.77;;
2896;SDS011;1458;49.728;9.228;2023-09-12T12:19:44;11.67;;;11.37;;
2896;SDS011;1458;49.728;9.228;2023-09-12T12:22:12;11.60;;;11.30;;
2896;SDS011;1458;49.728;9.228;2023-09-12T12:24:45;12.30;;;11.90;;
2896;SDS011;1458;49.728;9.228;2023-09-12T12:27:14;11.63;;;11.33;;
2896;SDS011;1458;49.728;9.228;2023-09-12T12:29:42;11.80;;;11.50;;
2896;SDS011;1458;49.728;9.228;2023-09-12T12:32:10;11.53;;;11.23;;
2896;SDS011;1458;49.728;9.228;2023-09-12T12:34:37;12.13;;;11.80;;
2896;SDS011;1458;49.728;9.228;2023-09-12T12:37:06;11.80;;;11.50;;
2896;SDS011;1458;49.728;9.228;2023-09-12T12:39:33;12.60;;;12.20;;
2896;SDS011;1458;49.728;9.228;2023-09-12T12:42:01;12.33;;;11.93;;
2896;SDS011;1458;49.728;9.228;2023-09-12T12:44:32;12.43;;;12.03;;
2896;SDS011;1458;49.728;9.228;2023-09-12T12:47:05;12.93;;;12.53;;
2896;SDS011;1458;49.728;9.228;2023-09-12T12:49:37;12.20;;;11.80;;
2896;SDS011;1458;49.728;9.228;2023-09-12T12:52:09;12.10;;;11.70;;
2896;SDS011;1458;49.728;9.228;2023-09-12T12:54:37;12.47;;;12.07;;
2896;SDS011;1458;49.728;9.228;2023-09-12T12:57:04;12.37;;;11.97;;
2896;SDS011;1458;49.728;9.228;2023-09-12T12:59:32;12.27;;;11.87;;
2896;SDS011;1458;49.728;9.228;2023-09-12T13:02:01;12.40;;;12.00;;
2896;SDS011;1458;49.728;9.228;2023-09-12T13:04:35;12.37;;;11.97;;
2896;SDS011;1458;49.728;9.228;2023-09-12T13:07:05;11.77;;;11.47;;
2896;SDS011;1458;49.728;9.228;2023-09-12T13:09:32;12.03;;;11.70;;
2896;SDS011;1458;49.728;9.228;2023-09-12T13:11:59;11.77;;;11.47;;
2896;SDS011;1458;49.728;9.228;2023-09-12T13:14:27;11.50;;;11.20;;
2896;SDS011;1458;49.728;9.228;2023-09-12T13:16:56;11.33;;;11.03;;
2896;SDS011;1458;49.728;9.228;2023-09-12T13:19:24;11.20;;;10.90;;
2896;SDS011;1458;49.728;9.228;2023-09-12T13:21:52;11.37;;;11.07;;
2896;SDS011;1458;49.728;9.228;2023-09-12T13:24:21;11.37;;;11.07;;
2896;SDS011;1458;49.728;9.228;2023-09-12T13:26:48;11.27;;;10.97;;
2896;SDS011;1458;49.728;9.228;2023-09-12T13:29:16;11.70;;;11.40;;
2896;SDS011;1458;49.728;9.228;2023-09-12T13:31:43;11.20;;;10.90;;
2896;SDS011;1458;49.728;9.228;2023-09-12T13:34:11;11.40;;;11.10;;
2896;SDS011;1458;49.728;9.228;2023-09-12T13:36:38;11.30;;;11.00;;
2896;SDS011;1458;49.728;9.228;2023-09-12T13:39:06;11.73;;;11.43;;
2896;SDS011;1458;49.728;9.228;2023-09-12T13:41:35;11.30;;;11.00;;
2896;SDS011;1458;49.728;9.228;2023-09-12T13:44:04;11.20;;;10.90;;
2896;SDS011;1458;49.728;9.228;2023-09-12T13:46:32;12.00;;;11.70;;
2896;SDS011;1458;49.728;9.228;2023-09-12T13:48:59;11.90;;;11.60;;
2896;SDS011;1458;49.728;9.228;2023-09-12T13:51:28;11.97;;;11.67;;
2896;SDS011;1458;49.728;9.228;2023-09-12T13:53:56;11.83;;;11.53;;
2896;SDS011;1458;49.728;9.228;2023-09-12T13:58:59;11.80;;;11.50;;
2896;SDS011;1458;49.728;9.228;2023-09-12T14:01:30;11.57;;;11.27;;
2896;SDS011;1458;49.728;9.228;2023-09-12T14:03:58;11.80;;;11.50;;
2896;SDS011;1458;49.728;9.228;2023-09-12T14:06:25;11.93;;;11.63;;
2896;SDS011;1458;49.728;9.228;2023-09-12T14:08:53;12.37;;;11.97;;
2896;SDS011;1458;49.728;9.228;2023-09-12T14:11:20;11.90;;;11.60;;
2896;SDS011;1458;49.728;9.228;2023-09-12T14:13:48;12.10;;;11.70;;
2896;SDS011;1458;49.728;9.228;2023-09-12T14:16:17;12.00;;;11.60;;
2896;SDS011;1458;49.728;9.228;2023-09-12T14:18:44;12.23;;;11.83;;
2896;SDS011;1458;49.728;9.228;2023-09-12T14:21:12;12.40;;;12.00;;
2896;SDS011;1458;49.728;9.228;2023-09-12T14:23:39;12.70;;;12.30;;
2896;SDS011;1458;49.728;9.228;2023-09-12T14:26:07;12.60;;;12.20;;
2896;SDS011;1458;49.728;9.228;2023-09-12T14:28:34;12.80;;;12.40;;
2896;SDS011;1458;49.728;9.228;2023-09-12T14:31:01;12.40;;;12.00;;
2896;SDS011;1458;49.728;9.228;2023-09-12T14:33:33;12.33;;;11.93;;
2896;SDS011;1458;49.728;9.228;2023-09-12T14:36:00;12.33;;;11.93;;
2896;SDS011;1458;49.728;9.228;2023-09-12T14:38:29;12.30;;;11.90;;
2896;SDS011;1458;49.728;9.228;2023-09-12T14:40:57;12.43;;;12.03;;
2896;SDS011;1458;49.728;9.228;2023-09-12T14:43:24;12.27;;;11.87;;
2896;SDS011;1458;49.728;9.228;2023-09-12T14:45:53;12.50;;;12.10;;
2896;SDS011;1458;49.728;9.228;2023-09-12T14:48:21;12.33;;;11.93;;
2896;SDS011;1458;49.728;9.228;2023-09-12T14:50:50;12.77;;;12.37;;
2896;SDS011;1458;49.728;9.228;2023-09-12T14:53:18;12.30;;;11.90;;
2896;SDS011;1458;49.728;9.228;2023-09-12T14:55:45;12.53;;;12.13;;
2896;SDS011;1458;49.728;9.228;2023-09-12T14:58:13;12.67;;;12.27;;
2896;SDS011;1458;49.728;9.228;2023-09-12T15:00:40;12.10;;;11.70;;
2896;SDS011;1458;49.728;9.228;2023-09-12T15:03:08;12.30;;;11.90;;
2896;SDS011;1458;49.728;9.228;2023-09-12T15:05:35;12.20;;;11.80;;
2896;SDS011;1458;49.728;9.228;2023-09-12T15:08:04;11.90;;;11.50;;
2896;SDS011;1458;49.728;9.228;2023-09-12T15:10:33;12.50;;;12.10;;
2896;SDS011;1458;49.728;9.228;2023-09-12T15:13:00;12.17;;;11.77;;
2896;SDS011;1458;49.728;9.228;2023-09-12T15:15:28;12.20;;;11.80;;
2896;SDS011;1458;49.728;9.228;2023-09-12T15:17:55;12.20;;;11.80;;
2896;SDS011;1458;49.728;9.228;2023-09-12T15:20:25;12.53;;;12.13;;
2896;SDS011;1458;49.728;9.228;2023-09-12T15:22:52;12.50;;;12.10;;
2896;SDS011;1458;49.728;9.228;2023-09-12T15:25:21;12.10;;;11.70;;
2896;SDS011;1458;49.728;9.228;2023-09-12T15:27:49;12.37;;;11.97;;
2896;SDS011;1458;49.728;9.228;2023-09-12T15:30:16;12.20;;;11.80;;
2896;SDS011;1458;49.728;9.228;2023-09-12T15:32:44;12.13;;;11.73;;